Time;durP1;ratioP1;P1;durP2;ratioP2;P2;SDS_P1;SDS_P2;PMS_P1;PMS_P2;Temp;Humidity;BMP_temperature;BMP_pressure;BME280_temperature;BME280_humidity;BME280_pressure;Samples;Min_cycle;Max_cycle;Signal;HPM_P1;HPM_P2
2022/07/14 00:01:24;;;;;;;8.75;2.33;;;16.00;99.90;;;;;;4972703;28;20101;-68
2022/07/14 00:03:50;;;;;;;10.18;2.50;;;16.00;99.90;;;;;;4972915;28;20368;-69
2022/07/14 00:06:16;;;;;;;8.77;2.50;;;16.00;99.90;;;;;;4973306;28;20026;-70
2022/07/14 00:08:45;;;;;;;12.15;2.35;;;16.00;99.90;;;;;;4973556;28;20026;-68
2022/07/14 00:11:12;;;;;;;7.90;2.10;;;15.90;99.90;;;;;;4972954;28;20090;-68
2022/07/14 00:13:38;;;;;;;12.68;2.30;;;15.90;99.90;;;;;;4972953;28;20031;-67
2022/07/14 00:16:04;;;;;;;12.73;2.58;;;15.80;99.90;;;;;;4972666;28;20030;-67
2022/07/14 00:18:29;;;;;;;7.22;1.95;;;15.80;99.90;;;;;;4973237;28;20138;-66
2022/07/14 00:20:55;;;;;;;7.63;2.40;;;15.80;99.90;;;;;;4972944;28;20417;-68
2022/07/14 00:23:23;;;;;;;6.20;2.35;;;15.70;99.90;;;;;;4973027;28;20370;-67
2022/07/14 00:25:49;;;;;;;7.57;2.42;;;15.70;99.90;;;;;;4972935;28;20099;-67
2022/07/14 00:28:15;;;;;;;2.90;1.70;;;15.70;99.90;;;;;;4973137;28;20054;-68
2022/07/14 00:30:41;;;;;;;7.68;2.35;;;15.60;99.90;;;;;;4972270;28;20479;-67
2022/07/14 00:33:06;;;;;;;5.38;2.13;;;15.50;99.90;;;;;;4972678;28;20027;-68
2022/07/14 00:35:32;;;;;;;9.98;2.38;;;15.50;99.90;;;;;;4972728;28;20101;-70
2022/07/14 00:37:59;;;;;;;6.22;2.30;;;15.40;99.90;;;;;;4972537;28;20404;-67
2022/07/14 00:40:25;;;;;;;8.38;2.20;;;15.30;99.90;;;;;;4972536;28;20027;-67
2022/07/14 00:42:54;;;;;;;8.73;2.60;;;15.30;99.90;;;;;;4972741;28;20027;-67
2022/07/14 00:45:21;;;;;;;8.90;2.28;;;15.20;99.90;;;;;;4972562;28;20172;-67
2022/07/14 00:47:48;;;;;;;12.40;3.45;;;15.20;99.90;;;;;;4972879;28;20035;-67
2022/07/14 00:50:16;;;;;;;12.00;2.65;;;15.10;99.90;;;;;;4971251;28;20030;-69
2022/07/14 00:52:44;;;;;;;8.73;2.47;;;15.00;99.90;;;;;;4972084;28;20047;-66
2022/07/14 00:55:12;;;;;;;4.63;2.10;;;15.00;99.90;;;;;;4972721;28;20454;-67
2022/07/14 00:57:38;;;;;;;8.57;2.50;;;14.90;99.90;;;;;;4972361;28;20023;-67
2022/07/14 01:00:09;;;;;;;12.75;2.30;;;14.90;99.90;;;;;;4972542;28;20050;-67
2022/07/14 01:02:35;;;;;;;8.25;2.40;;;14.80;99.90;;;;;;4972570;28;20491;-67
2022/07/14 01:05:01;;;;;;;12.20;2.70;;;14.80;99.90;;;;;;4972612;28;20023;-67
2022/07/14 01:07:26;;;;;;;7.38;2.08;;;14.70;99.90;;;;;;4974048;28;20049;-67
2022/07/14 01:09:52;;;;;;;7.78;1.98;;;14.70;99.90;;;;;;4975541;28;20117;-66
2022/07/14 01:12:18;;;;;;;6.30;2.22;;;14.60;99.90;;;;;;4973723;28;20039;-67
2022/07/14 01:14:44;;;;;;;11.02;2.55;;;14.60;99.90;;;;;;4975889;28;20098;-67
2022/07/14 01:17:10;;;;;;;8.43;2.40;;;14.60;99.90;;;;;;4975973;28;20019;-68
2022/07/14 01:19:36;;;;;;;10.32;2.80;;;14.50;99.90;;;;;;4974443;28;20046;-67
2022/07/14 01:22:02;;;;;;;7.00;2.00;;;14.50;99.90;;;;;;4975857;28;20038;-67
2022/07/14 01:24:28;;;;;;;12.73;3.13;;;14.50;99.90;;;;;;4975736;28;20441;-68
2022/07/14 01:26:54;;;;;;;10.80;2.53;;;14.40;99.90;;;;;;4975280;28;20029;-67
2022/07/14 01:29:22;;;;;;;10.52;2.17;;;14.40;99.90;;;;;;4975516;28;20053;-67
2022/07/14 01:31:48;;;;;;;10.10;2.70;;;14.40;99.90;;;;;;4975443;28;20034;-69
2022/07/14 01:34:13;;;;;;;9.38;2.60;;;14.40;99.90;;;;;;4975578;28;20074;-69
2022/07/14 01:36:39;;;;;;;9.43;2.72;;;14.40;99.90;;;;;;4975322;28;20039;-68
2022/07/14 01:39:06;;;;;;;8.30;2.17;;;14.30;99.90;;;;;;4975655;28;20037;-66
2022/07/14 01:41:33;;;;;;;6.40;2.20;;;14.30;99.90;;;;;;4975384;28;20449;-67
2022/07/14 01:43:59;;;;;;;5.63;2.40;;;14.20;99.90;;;;;;4975464;28;20034;-68
2022/07/14 01:46:24;;;;;;;9.80;2.58;;;14.20;99.90;;;;;;4974887;28;20047;-69
2022/07/14 01:48:50;;;;;;;9.70;2.33;;;14.20;99.90;;;;;;4975002;28;20365;-67
2022/07/14 01:51:16;;;;;;;8.20;2.70;;;14.10;99.90;;;;;;4975099;28;20031;-66
2022/07/14 01:53:42;;;;;;;8.20;2.33;;;14.10;99.90;;;;;;4975259;28;20031;-68
2022/07/14 01:56:08;;;;;;;4.53;2.17;;;14.10;99.90;;;;;;4974613;28;20417;-67
2022/07/14 01:58:34;;;;;;;9.95;2.10;;;14.00;99.90;;;;;;4975290;28;20027;-68
2022/07/14 02:03:45;;;;;;;10.88;2.65;;;13.90;99.90;;;;;;4974668;28;20128;-67
2022/07/14 02:06:11;;;;;;;9.05;2.38;;;13.90;99.90;;;;;;4974809;28;20019;-67
2022/07/14 02:08:37;;;;;;;11.35;2.50;;;13.80;99.90;;;;;;4974366;28;20054;-68
2022/07/14 02:13:46;;;;;;;6.15;2.30;;;13.80;99.90;;;;;;4974764;28;20037;-69
2022/07/14 02:16:12;;;;;;;7.35;2.25;;;13.70;99.90;;;;;;4974506;28;20027;-68
2022/07/14 02:18:37;;;;;;;11.35;2.60;;;13.70;99.90;;;;;;4974721;28;20031;-68
2022/07/14 02:21:04;;;;;;;8.48;2.70;;;13.60;99.90;;;;;;4972905;28;20457;-68
2022/07/14 02:23:30;;;;;;;10.10;2.60;;;13.60;99.90;;;;;;4974355;28;20073;-70
2022/07/14 02:25:56;;;;;;;8.15;2.40;;;13.60;99.90;;;;;;4974515;28;20427;-71
2022/07/14 02:28:22;;;;;;;7.05;2.60;;;13.50;99.90;;;;;;4974444;28;20027;-67
2022/07/14 02:30:48;;;;;;;11.32;2.63;;;13.50;99.90;;;;;;4974476;28;20015;-67
2022/07/14 02:33:14;;;;;;;6.43;2.60;;;13.50;99.90;;;;;;4974662;28;20030;-71
2022/07/14 02:35:39;;;;;;;18.58;3.13;;;13.50;99.90;;;;;;4974052;28;20065;-67
2022/07/14 02:38:05;;;;;;;9.70;2.90;;;13.40;99.90;;;;;;4974267;28;20031;-68
2022/07/14 02:40:32;;;;;;;8.95;2.90;;;13.40;99.90;;;;;;4974385;28;20062;-67
2022/07/14 02:42:57;;;;;;;6.88;3.08;;;13.40;99.90;;;;;;4974266;28;20030;-66
2022/07/14 02:45:23;;;;;;;5.53;2.47;;;13.40;99.90;;;;;;4974077;28;20054;-68
2022/07/14 02:47:48;;;;;;;5.32;2.20;;;13.40;99.90;;;;;;4973759;28;20081;-68
2022/07/14 02:50:14;;;;;;;12.45;2.67;;;13.40;99.90;;;;;;4973875;28;20077;-68
2022/07/14 02:52:39;;;;;;;13.20;2.80;;;13.40;99.90;;;;;;4974145;28;20399;-68
2022/07/14 02:55:06;;;;;;;8.32;2.63;;;13.40;99.90;;;;;;4972695;28;20397;-68
2022/07/14 02:57:32;;;;;;;9.32;2.83;;;13.40;99.90;;;;;;4974231;28;20037;-68
2022/07/14 02:59:58;;;;;;;9.88;2.30;;;13.40;99.90;;;;;;4974410;28;20101;-69
2022/07/14 03:02:24;;;;;;;8.38;2.72;;;13.40;99.90;;;;;;4974403;28;20027;-70
2022/07/14 03:04:50;;;;;;;8.18;2.55;;;13.40;99.90;;;;;;4975074;28;20033;-70
2022/07/14 03:07:15;;;;;;;7.78;2.63;;;13.40;99.90;;;;;;4975316;28;20033;-68
2022/07/14 03:09:41;;;;;;;8.35;2.63;;;13.40;99.90;;;;;;4973869;28;20022;-68
2022/07/14 03:12:07;;;;;;;6.93;2.80;;;13.40;99.90;;;;;;4973714;28;20043;-68
2022/07/14 03:14:33;;;;;;;6.40;2.35;;;13.40;99.90;;;;;;4973781;28;20376;-68
2022/07/14 03:16:58;;;;;;;10.77;2.63;;;13.40;99.90;;;;;;4973972;28;20023;-67
2022/07/14 03:19:24;;;;;;;10.20;2.30;;;13.40;99.90;;;;;;4972855;28;20113;-70
2022/07/14 03:21:49;;;;;;;12.00;2.25;;;13.40;99.90;;;;;;4973731;28;20068;-67
2022/07/14 03:24:15;;;;;;;8.63;2.40;;;13.40;99.90;;;;;;4972157;28;20038;-67
2022/07/14 03:26:41;;;;;;;10.13;2.65;;;13.30;99.90;;;;;;4973311;28;20018;-68
2022/07/14 03:29:07;;;;;;;7.55;2.50;;;13.30;99.90;;;;;;4973008;28;20368;-67
2022/07/14 03:31:33;;;;;;;10.82;2.65;;;13.30;99.90;;;;;;4973575;28;20174;-69
2022/07/14 03:33:59;;;;;;;7.47;2.50;;;13.30;99.90;;;;;;4972857;28;20070;-69
2022/07/14 03:36:24;;;;;;;8.45;2.60;;;13.30;99.90;;;;;;4973378;28;20022;-68
2022/07/14 03:38:50;;;;;;;8.63;2.22;;;13.30;99.90;;;;;;4973301;28;20031;-67
2022/07/14 03:41:15;;;;;;;5.05;2.33;;;13.30;99.90;;;;;;4973133;28;20536;-67
2022/07/14 03:43:41;;;;;;;6.32;2.22;;;13.20;99.90;;;;;;4972829;28;20030;-69
2022/07/14 03:46:07;;;;;;;8.13;2.47;;;13.20;99.90;;;;;;4973242;28;20473;-70
2022/07/14 03:48:35;;;;;;;6.18;2.67;;;13.20;99.90;;;;;;4973014;28;20051;-68
2022/07/14 03:51:01;;;;;;;10.98;2.47;;;13.20;99.90;;;;;;4973093;28;20440;-67
2022/07/14 03:53:26;;;;;;;8.38;2.63;;;13.20;99.90;;;;;;4973117;28;20161;-68
2022/07/14 03:55:52;;;;;;;11.63;3.00;;;13.20;99.90;;;;;;4973075;28;20097;-67
2022/07/14 03:58:18;;;;;;;6.82;2.50;;;13.30;99.90;;;;;;4973133;28;20101;-71
2022/07/14 04:00:43;;;;;;;6.82;2.75;;;13.30;99.90;;;;;;4973228;28;20365;-68
2022/07/14 04:03:11;;;;;;;4.88;2.13;;;13.30;99.90;;;;;;4972896;28;20346;-69
2022/07/14 04:05:37;;;;;;;9.70;2.55;;;13.30;99.90;;;;;;4973129;28;20027;-69
2022/07/14 04:08:03;;;;;;;8.10;2.75;;;13.30;99.90;;;;;;4973359;28;20030;-67
2022/07/14 04:10:29;;;;;;;6.88;2.55;;;13.40;99.90;;;;;;4972310;28;20031;-70
2022/07/14 04:12:56;;;;;;;9.00;2.70;;;13.40;99.90;;;;;;4972554;28;20042;-71
2022/07/14 04:15:23;;;;;;;8.13;2.30;;;13.40;99.90;;;;;;4972830;28;20023;-68
2022/07/14 04:17:49;;;;;;;9.38;3.03;;;13.40;99.90;;;;;;4972984;28;20035;-68
2022/07/14 04:20:14;;;;;;;6.07;2.45;;;13.50;99.90;;;;;;4973040;28;20069;-68
2022/07/14 04:22:40;;;;;;;7.97;2.58;;;13.50;99.90;;;;;;4972520;28;20377;-70
2022/07/14 04:25:07;;;;;;;7.97;2.28;;;13.60;99.90;;;;;;4973269;28;20035;-68
2022/07/14 04:27:33;;;;;;;7.10;2.50;;;13.60;99.90;;;;;;4971519;28;20372;-70
2022/07/14 04:29:58;;;;;;;5.07;2.13;;;13.70;99.90;;;;;;4972630;28;20023;-69
2022/07/14 04:32:24;;;;;;;8.75;2.25;;;13.70;99.90;;;;;;4972203;28;20410;-67
2022/07/14 04:34:50;;;;;;;6.88;2.30;;;13.70;99.90;;;;;;4971247;28;20033;-68
2022/07/14 04:37:15;;;;;;;6.07;2.55;;;13.80;99.90;;;;;;4971376;28;20456;-68
2022/07/14 04:39:41;;;;;;;7.75;2.15;;;13.90;99.90;;;;;;4972913;28;20372;-67
2022/07/14 04:42:06;;;;;;;9.80;2.15;;;14.00;99.90;;;;;;4975649;28;20030;-70
2022/07/14 04:44:33;;;;;;;4.45;2.40;;;14.10;99.90;;;;;;4976316;28;20058;-69
2022/07/14 04:46:58;;;;;;;7.13;2.35;;;14.10;99.90;;;;;;4976108;28;20121;-70
2022/07/14 04:52:08;;;;;;;7.18;2.30;;;14.30;99.90;;;;;;4976025;28;20061;-67
2022/07/14 04:54:35;;;;;;;11.57;2.90;;;14.30;99.90;;;;;;4976345;28;20027;-67
2022/07/14 04:57:03;;;;;;;7.82;3.00;;;14.40;99.90;;;;;;4976255;28;20504;-67
2022/07/14 04:59:30;;;;;;;11.38;3.10;;;14.50;99.90;;;;;;4976126;28;20026;-67
2022/07/14 05:01:57;;;;;;;7.28;2.45;;;14.60;99.90;;;;;;4976123;28;20369;-68
2022/07/14 05:04:22;;;;;;;9.65;2.78;;;14.70;99.90;;;;;;4976402;28;20448;-66
2022/07/14 05:06:49;;;;;;;8.73;2.53;;;14.90;99.90;;;;;;4976496;28;20023;-68
2022/07/14 05:09:16;;;;;;;5.95;2.67;;;15.10;99.90;;;;;;4974920;28;20061;-68
2022/07/14 05:11:42;;;;;;;10.77;3.00;;;15.20;99.90;;;;;;4975713;28;20410;-69
2022/07/14 05:14:08;;;;;;;6.90;2.80;;;15.40;99.90;;;;;;4976289;28;20030;-68
2022/07/14 05:16:33;;;;;;;8.48;2.30;;;15.50;99.90;;;;;;4975688;28;20417;-67
2022/07/14 05:18:59;;;;;;;9.05;2.45;;;15.70;99.90;;;;;;4976193;28;20065;-68
2022/07/14 05:21:26;;;;;;;6.35;1.98;;;15.80;99.90;;;;;;4976104;28;20481;-70
2022/07/14 05:23:52;;;;;;;7.70;2.60;;;16.00;99.90;;;;;;4975931;28;20028;-67
2022/07/14 05:26:17;;;;;;;7.53;2.25;;;16.20;99.90;;;;;;4975783;28;20421;-68
2022/07/14 05:28:43;;;;;;;5.78;1.77;;;16.40;99.90;;;;;;4975609;28;20027;-69
2022/07/14 05:31:09;;;;;;;12.32;3.10;;;16.60;99.90;;;;;;4975570;28;20058;-67
2022/07/14 05:33:35;;;;;;;6.00;1.60;;;16.80;99.90;;;;;;4975677;28;20033;-71
2022/07/14 05:36:01;;;;;;;9.77;2.33;;;17.00;99.90;;;;;;4975626;28;20018;-67
2022/07/14 05:38:27;;;;;;;3.80;1.02;;;17.30;99.90;;;;;;4974418;28;20030;-69
2022/07/14 05:40:53;;;;;;;7.10;1.63;;;17.70;99.90;;;;;;4975172;28;20276;-68
2022/07/14 05:43:19;;;;;;;8.30;1.30;;;18.20;99.90;;;;;;4975640;28;20081;-67
2022/07/14 05:45:45;;;;;;;7.22;1.30;;;18.90;99.90;;;;;;4973702;28;20074;-67
2022/07/14 05:48:11;;;;;;;4.40;1.42;;;19.60;99.90;;;;;;4975312;28;20033;-69
2022/07/14 05:50:36;;;;;;;9.93;2.28;;;20.30;99.90;;;;;;4973516;28;20023;-70
2022/07/14 05:53:02;;;;;;;12.30;2.50;;;20.90;99.90;;;;;;4974611;28;20062;-69
2022/07/14 05:55:28;;;;;;;8.48;1.55;;;21.60;99.90;;;;;;4975250;28;20033;-68
2022/07/14 05:57:54;;;;;;;8.55;1.88;;;22.20;99.90;;;;;;4975073;28;20037;-68
2022/07/14 06:00:19;;;;;;;7.65;1.60;;;22.90;99.70;;;;;;4975477;28;20038;-72
2022/07/14 06:02:45;;;;;;;7.70;1.83;;;23.60;97.40;;;;;;4975320;28;20030;-67
2022/07/14 06:05:11;;;;;;;10.15;2.03;;;24.20;96.80;;;;;;4975378;28;20023;-67
2022/07/14 06:07:37;;;;;;;12.20;2.10;;;24.90;95.80;;;;;;4974652;28;20077;-67
2022/07/14 06:10:05;;;;;;;6.90;1.70;;;25.60;94.80;;;;;;4974959;28;20397;-67
2022/07/14 06:12:32;;;;;;;8.70;2.55;;;26.30;93.20;;;;;;4974905;28;20035;-67
2022/07/14 06:14:58;;;;;;;8.90;3.85;;;26.90;92.60;;;;;;4974615;28;20460;-72
2022/07/14 06:17:24;;;;;;;9.15;2.28;;;27.70;91.40;;;;;;4975139;28;20534;-69
2022/07/14 06:19:50;;;;;;;5.03;1.45;;;28.40;90.70;;;;;;4975136;28;20018;-68
2022/07/14 06:22:16;;;;;;;5.93;2.05;;;29.10;88.70;;;;;;4974840;28;20018;-67
2022/07/14 06:24:41;;;;;;;8.27;1.95;;;29.50;85.90;;;;;;4975169;28;20019;-68
2022/07/14 06:27:08;;;;;;;6.00;1.63;;;29.90;84.50;;;;;;4975193;28;20106;-69
2022/07/14 06:29:33;;;;;;;8.55;3.45;;;30.20;82.90;;;;;;4975100;28;20022;-70
2022/07/14 06:31:59;;;;;;;5.75;1.48;;;30.40;82.40;;;;;;4974861;28;20121;-70
2022/07/14 06:34:25;;;;;;;4.07;1.40;;;30.80;81.20;;;;;;4974376;28;20076;-70
2022/07/14 06:36:51;;;;;;;2.58;0.98;;;31.10;80.30;;;;;;4974261;28;20058;-67
2022/07/14 06:39:17;;;;;;;4.68;1.77;;;31.30;77.80;;;;;;4974002;28;20023;-67
2022/07/14 06:41:43;;;;;;;5.60;1.38;;;31.30;77.60;;;;;;4973186;28;20030;-69
2022/07/14 06:44:08;;;;;;;4.85;1.05;;;31.30;77.10;;;;;;4974061;28;20462;-67
2022/07/14 06:46:34;;;;;;;7.63;1.60;;;31.20;76.80;;;;;;4974564;28;20019;-68
2022/07/14 06:49:00;;;;;;;8.50;2.65;;;31.00;77.30;;;;;;4972930;28;20023;-67
2022/07/14 06:51:26;;;;;;;5.18;1.33;;;31.20;77.10;;;;;;4974338;28;20030;-69
2022/07/14 06:53:52;;;;;;;9.85;2.72;;;31.50;76.40;;;;;;4974266;28;20437;-68
2022/07/14 06:56:18;;;;;;;2.97;1.10;;;31.60;75.50;;;;;;4974260;28;20029;-67
2022/07/14 06:58:43;;;;;;;4.75;1.30;;;31.80;74.60;;;;;;4973739;28;20027;-66
2022/07/14 07:01:09;;;;;;;6.10;1.48;;;31.80;74.20;;;;;;4973804;28;20031;-67
2022/07/14 07:03:35;;;;;;;4.30;1.60;;;31.80;74.60;;;;;;4973855;28;20362;-67
2022/07/14 07:08:45;;;;;;;3.22;0.90;;;32.30;73.00;;;;;;4974261;28;20033;-70
2022/07/14 07:11:10;;;;;;;5.55;1.52;;;32.50;72.20;;;;;;4973125;28;20043;-67
2022/07/14 07:13:39;;;;;;;5.32;1.30;;;32.70;72.30;;;;;;4973768;28;20033;-71
2022/07/14 07:16:06;;;;;;;5.22;1.10;;;33.10;71.50;;;;;;4971892;28;20019;-67
2022/07/14 07:18:33;;;;;;;6.70;1.55;;;33.50;69.90;;;;;;4973366;28;20046;-67
2022/07/14 07:20:59;;;;;;;5.93;1.00;;;33.50;70.10;;;;;;4972638;28;20019;-67
2022/07/14 07:23:25;;;;;;;5.53;1.15;;;33.50;68.60;;;;;;4973585;28;20033;-67
2022/07/14 07:25:52;;;;;;;5.28;1.10;;;33.40;68.50;;;;;;4973876;28;20065;-67
2022/07/14 07:28:17;;;;;;;4.93;1.33;;;33.40;67.60;;;;;;4973573;28;20030;-68
2022/07/14 07:30:43;;;;;;;4.50;1.48;;;33.50;67.50;;;;;;4972986;28;20533;-67
2022/07/14 07:33:08;;;;;;;3.72;1.30;;;33.60;67.70;;;;;;4973494;28;20433;-66
2022/07/14 07:35:34;;;;;;;5.93;1.42;;;33.70;68.00;;;;;;4971025;28;20023;-67
2022/07/14 07:38:00;;;;;;;5.75;1.42;;;33.70;67.80;;;;;;4973555;28;20472;-68
2022/07/14 07:40:26;;;;;;;7.95;1.33;;;33.80;67.60;;;;;;4973815;28;20061;-68
2022/07/14 07:42:51;;;;;;;5.07;1.20;;;33.60;67.80;;;;;;4973995;28;20076;-68
2022/07/14 07:45:17;;;;;;;8.65;1.50;;;33.50;67.20;;;;;;4973270;28;20057;-69
2022/07/14 07:47:43;;;;;;;5.50;1.17;;;33.40;66.50;;;;;;4973907;28;20025;-67
2022/07/14 07:50:10;;;;;;;7.15;1.50;;;33.10;66.90;;;;;;4973169;28;20369;-66
2022/07/14 07:52:36;;;;;;;8.00;1.77;;;32.90;67.30;;;;;;4973456;28;20117;-66
2022/07/14 07:55:08;;;;;;;8.27;1.70;;;32.60;68.70;;;;;;4973413;28;20035;-67
2022/07/14 07:57:34;;;;;;;7.28;1.63;;;32.30;69.40;;;;;;4972290;28;20019;-69
2022/07/14 07:59:59;;;;;;;8.15;1.58;;;31.90;69.80;;;;;;4971174;28;20030;-65
2022/07/14 08:02:26;;;;;;;6.45;1.50;;;31.30;70.10;;;;;;4973333;28;20023;-66
2022/07/14 08:04:52;;;;;;;5.30;2.05;;;30.70;71.40;;;;;;4973452;28;20085;-67
2022/07/14 08:07:18;;;;;;;4.72;1.25;;;30.10;72.70;;;;;;4972135;28;20027;-67
2022/07/14 08:09:44;;;;;;;4.55;1.17;;;29.90;74.00;;;;;;4973631;28;20031;-67
2022/07/14 08:12:09;;;;;;;8.60;1.42;;;30.00;74.20;;;;;;4973441;28;20380;-67
2022/07/14 08:14:51;;;;;;;8.18;1.42;;;30.00;73.50;;;;;;4973186;28;20034;-68
2022/07/14 08:17:19;;;;;;;6.05;1.52;;;30.00;73.60;;;;;;4976858;28;20034;-67
2022/07/14 08:19:45;;;;;;;6.22;1.65;;;30.10;73.10;;;;;;4977297;28;20015;-68
2022/07/14 08:22:11;;;;;;;6.78;1.80;;;30.20;72.80;;;;;;4977232;28;20026;-68
2022/07/14 08:24:37;;;;;;;7.53;1.55;;;30.40;72.80;;;;;;4977379;28;20341;-67
2022/07/14 08:27:02;;;;;;;10.35;2.17;;;30.50;72.60;;;;;;4976860;28;20434;-67
2022/07/14 08:29:28;;;;;;;4.75;1.55;;;30.70;72.50;;;;;;4977043;28;20031;-69
2022/07/14 08:31:54;;;;;;;6.75;1.70;;;31.10;71.80;;;;;;4974491;28;20089;-70
2022/07/14 08:34:19;;;;;;;9.35;1.63;;;31.70;71.30;;;;;;4976708;28;20023;-67
2022/07/14 08:36:45;;;;;;;6.05;1.40;;;32.60;70.60;;;;;;4976630;28;20029;-69
2022/07/14 08:39:11;;;;;;;10.93;1.90;;;33.70;69.10;;;;;;4976859;28;20373;-68
2022/07/14 08:41:37;;;;;;;4.93;1.25;;;34.60;67.20;;;;;;4976906;28;20069;-68
2022/07/14 08:44:04;;;;;;;6.13;1.77;;;35.60;66.20;;;;;;4976654;28;20023;-68
2022/07/14 08:46:33;;;;;;;6.03;1.50;;;36.40;64.50;;;;;;4976754;28;20051;-67
2022/07/14 08:49:00;;;;;;;6.03;1.33;;;37.10;63.10;;;;;;4975169;28;20050;-67
2022/07/14 08:51:26;;;;;;;11.52;1.70;;;37.60;62.50;;;;;;4976325;28;20093;-68
2022/07/14 08:53:52;;;;;;;5.57;1.20;;;38.20;60.60;;;;;;4976909;28;20071;-69
2022/07/14 08:56:19;;;;;;;7.00;1.90;;;38.60;58.30;;;;;;4976648;28;20031;-67
2022/07/14 08:58:45;;;;;;;5.38;1.90;;;38.40;58.30;;;;;;4976496;28;20019;-69
2022/07/14 09:01:11;;;;;;;5.35;1.20;;;38.20;58.80;;;;;;4976163;28;20038;-67
2022/07/14 09:03:36;;;;;;;8.00;1.70;;;38.20;58.10;;;;;;4976388;28;20027;-68
2022/07/14 09:06:04;;;;;;;6.28;1.50;;;38.20;58.10;;;;;;4976639;28;20029;-68
2022/07/14 09:08:30;;;;;;;5.50;1.45;;;38.10;57.90;;;;;;4976600;28;20027;-67
2022/07/14 09:10:55;;;;;;;4.40;1.58;;;38.00;57.00;;;;;;4976363;28;20046;-67
2022/07/14 09:13:22;;;;;;;4.65;1.10;;;38.10;57.20;;;;;;4975772;28;20435;-67
2022/07/14 09:15:49;;;;;;;6.65;1.65;;;38.00;56.10;;;;;;4974219;28;20049;-69
2022/07/14 09:18:28;;;;;;;3.45;1.25;;;37.70;56.10;;;;;;4974799;28;20030;-67
2022/07/14 09:20:55;;;;;;;3.38;1.15;;;37.30;57.30;;;;;;4974579;28;20650;-70
2022/07/14 09:23:32;;;;;;;5.57;1.10;;;36.90;58.40;;;;;;4974606;28;20022;-70
2022/07/14 09:26:11;;;;;;;5.40;1.10;;;36.80;58.90;;;;;;4975098;28;20065;-67
2022/07/14 09:28:45;;;;;;;4.95;1.13;;;36.80;59.00;;;;;;4974271;28;20030;-69
2022/07/14 09:31:21;;;;;;;4.93;1.10;;;36.80;58.60;;;;;;4974722;28;20034;-67
2022/07/14 09:33:48;;;;;;;5.68;1.05;;;36.70;58.50;;;;;;4975255;28;20111;-70
2022/07/14 09:36:35;;;;;;;3.05;1.13;;;36.20;58.90;;;;;;4973263;28;20720;-71
2022/07/14 09:39:02;;;;;;;5.40;1.35;;;35.70;59.60;;;;;;4973068;28;20026;-67
2022/07/14 09:41:49;;;;;;;6.15;1.33;;;35.30;60.50;;;;;;4975886;28;20153;-68
2022/07/14 09:44:19;;;;;;;4.20;1.33;;;35.00;60.10;;;;;;4974834;28;20142;-71
2022/07/14 09:46:46;;;;;;;6.53;1.25;;;34.80;60.50;;;;;;4975014;28;20177;-68
2022/07/14 09:49:12;;;;;;;3.20;1.48;;;34.50;60.50;;;;;;4975478;28;20023;-68
2022/07/14 09:51:58;;;;;;;10.10;1.88;;;34.30;60.80;;;;;;4975284;28;20122;-68
2022/07/14 09:54:46;;;;;;;6.10;1.45;;;34.10;61.20;;;;;;4975518;28;20019;-67
2022/07/14 09:57:15;;;;;;;4.70;1.30;;;33.80;61.80;;;;;;4975666;28;20461;-68
2022/07/14 09:59:49;;;;;;;5.63;1.20;;;33.50;61.80;;;;;;4975355;28;20516;-67
2022/07/14 10:02:21;;;;;;;4.50;1.30;;;33.40;62.50;;;;;;4975568;28;20022;-67
2022/07/14 10:04:47;;;;;;;;;;;33.20;62.70;;;;;;4973588;28;20033;-69
2022/07/14 10:07:14;;;;;;;5.13;1.42;;;33.10;62.90;;;;;;4975661;28;19902;-67
2022/07/14 10:09:47;;;;;;;5.53;1.25;;;33.10;62.40;;;;;;4975160;28;20051;-67
2022/07/14 10:12:13;;;;;;;3.40;0.98;;;33.10;62.40;;;;;;4974974;28;20402;-66
2022/07/14 10:14:40;;;;;;;3.08;0.98;;;32.90;62.90;;;;;;4973909;28;20097;-67
2022/07/14 10:17:06;;;;;;;6.88;1.00;;;32.80;63.00;;;;;;4972975;28;20027;-67
2022/07/14 10:19:32;;;;;;;5.97;1.13;;;32.80;63.00;;;;;;4975261;28;20054;-70
2022/07/14 10:21:59;;;;;;;3.30;1.05;;;32.70;63.20;;;;;;4975032;28;20117;-67
2022/07/14 10:24:25;;;;;;;4.35;0.90;;;32.60;63.80;;;;;;4974528;28;20544;-69
2022/07/14 10:26:52;;;;;;;4.95;0.70;;;32.40;63.80;;;;;;4974822;28;20031;-67
2022/07/14 10:29:18;;;;;;;5.63;1.30;;;32.10;63.70;;;;;;4974338;28;20019;-67
2022/07/14 10:32:20;;;;;;;4.75;1.20;;;31.90;64.10;;;;;;4973066;28;20452;-67
2022/07/14 10:34:59;;;;;;;5.25;0.95;;;31.70;64.70;;;;;;4973578;28;20183;-67
2022/07/14 10:37:50;;;;;;;4.47;0.93;;;31.40;64.90;;;;;;4973443;28;20482;-70
2022/07/14 10:40:29;;;;;;;2.47;0.80;;;31.20;65.50;;;;;;4973424;28;20027;-67
2022/07/14 10:43:05;;;;;;;6.18;0.88;;;30.90;65.40;;;;;;4974518;28;20318;-67
2022/07/14 10:45:31;;;;;;;4.43;0.93;;;30.80;65.80;;;;;;4974512;28;20043;-67
2022/07/14 10:47:57;;;;;;;1.92;0.50;;;30.70;66.30;;;;;;4974296;28;20027;-68
2022/07/14 10:50:27;;;;;;;4.50;1.10;;;30.70;66.40;;;;;;4974640;28;20460;-67
2022/07/14 10:53:06;;;;;;;1.90;0.80;;;30.70;65.70;;;;;;4974614;28;20026;-69
2022/07/14 10:55:35;;;;;;;4.82;1.50;;;30.80;65.70;;;;;;4974699;28;20022;-67
2022/07/14 10:58:03;;;;;;;4.45;0.80;;;31.10;65.80;;;;;;4973909;28;20039;-69
2022/07/14 11:00:43;;;;;;;3.60;1.00;;;31.40;65.40;;;;;;4974392;28;20114;-70
2022/07/14 11:03:19;;;;;;;4.63;0.88;;;31.40;64.00;;;;;;4973051;28;20031;-67
2022/07/14 11:06:07;;;;;;;2.60;0.90;;;31.40;64.40;;;;;;4974427;28;20480;-67
2022/07/14 11:08:41;;;;;;;4.60;0.60;;;31.40;64.60;;;;;;4972976;28;20033;-67
2022/07/14 11:11:25;;;;;;;3.10;0.80;;;31.30;64.40;;;;;;4974089;28;20066;-67
2022/07/14 11:14:09;;;;;;;2.47;0.70;;;31.20;64.70;;;;;;4974351;28;20027;-70
2022/07/14 11:16:59;;;;;;;3.70;0.90;;;31.20;64.90;;;;;;4973959;28;20069;-67
2022/07/14 11:19:37;;;;;;;7.20;0.95;;;31.00;65.60;;;;;;5001178;28;20473;-67
2022/07/14 11:22:21;;;;;;;3.95;1.02;;;31.00;65.20;;;;;;4974453;28;20500;-67
2022/07/14 11:24:49;;;;;;;3.47;0.63;;;31.40;64.60;;;;;;4973523;28;20373;-67
2022/07/14 11:27:47;;;;;;;2.22;0.50;;;31.80;63.90;;;;;;4973622;28;20026;-67
2022/07/14 11:30:26;;;;;;;6.40;0.88;;;32.10;62.90;;;;;;4974079;28;20035;-70
2022/07/14 11:33:30;;;;;;;4.38;0.65;;;32.00;63.20;;;;;;4973791;28;20039;-68
2022/07/14 11:38:41;;;;;;;3.00;1.00;;;31.20;59.60;;;;;;4969659;28;20090;-70
2022/07/14 11:41:13;;;;;;;1.42;0.45;;;31.10;59.20;;;;;;4972910;28;20479;-67
2022/07/14 11:43:46;;;;;;;2.00;0.50;;;31.00;59.10;;;;;;4973845;28;20077;-67
2022/07/14 11:46:14;;;;;;;0.45;0.30;;;31.10;57.90;;;;;;4973830;28;20043;-68
2022/07/14 11:48:48;;;;;;;2.38;0.55;;;31.00;54.70;;;;;;4973652;28;20476;-69
2022/07/14 11:51:22;;;;;;;1.08;0.35;;;31.00;55.30;;;;;;4973424;28;20022;-69
2022/07/14 11:54:04;;;;;;;0.55;0.22;;;31.40;56.30;;;;;;4973552;28;20022;-66
2022/07/14 11:56:30;;;;;;;3.67;0.98;;;31.70;57.50;;;;;;4973731;28;20073;-68
2022/07/14 11:59:03;;;;;;;2.20;0.60;;;32.00;58.10;;;;;;4973738;28;20116;-66
2022/07/14 12:01:38;;;;;;;5.82;0.63;;;32.70;55.20;;;;;;4972276;28;20030;-69
2022/07/14 12:04:09;;;;;;;4.72;0.40;;;33.80;55.70;;;;;;4973514;28;20018;-67
2022/07/14 12:06:38;;;;;;;3.43;0.60;;;34.80;56.30;;;;;;4973722;28;20031;-69
2022/07/14 12:09:03;;;;;;;2.67;0.70;;;35.70;55.10;;;;;;4973470;28;20449;-67
2022/07/14 12:11:29;;;;;;;1.00;0.30;;;36.40;54.00;;;;;;4973103;28;20073;-69
2022/07/14 12:13:54;;;;;;;1.58;0.47;;;36.80;53.30;;;;;;4973606;28;20019;-66
2022/07/14 12:16:21;;;;;;;2.72;0.52;;;37.20;51.30;;;;;;4972016;28;20519;-67
2022/07/14 12:18:50;;;;;;;4.28;0.60;;;37.40;52.20;;;;;;4972961;28;20066;-68
2022/07/14 12:21:16;;;;;;;3.35;0.60;;;37.30;50.70;;;;;;4973395;28;21026;-68
2022/07/14 12:23:56;;;;;;;1.35;0.40;;;37.10;51.10;;;;;;4973571;28;20023;-67
2022/07/14 12:26:23;;;;;;;1.80;0.45;;;36.90;51.40;;;;;;4973208;28;20034;-69
2022/07/14 12:28:52;;;;;;;1.05;0.50;;;36.50;50.60;;;;;;4972147;28;20022;-68
2022/07/14 12:31:19;;;;;;;2.13;0.63;;;36.20;50.90;;;;;;4973226;28;20035;-69
2022/07/14 12:33:46;;;;;;;3.05;0.60;;;36.10;51.60;;;;;;4973232;28;20023;-67
2022/07/14 12:36:18;;;;;;;1.13;0.40;;;35.70;50.20;;;;;;4972924;28;20030;-67
2022/07/14 12:38:45;;;;;;;2.53;0.70;;;35.00;50.60;;;;;;4973392;28;20023;-67
2022/07/14 12:41:13;;;;;;;2.97;0.40;;;34.60;52.20;;;;;;4973325;28;20453;-67
2022/07/14 12:43:42;;;;;;;2.03;0.90;;;34.20;52.20;;;;;;4973489;28;20054;-67
2022/07/14 12:46:18;;;;;;;3.75;0.95;;;34.00;53.60;;;;;;4973116;28;20046;-67
2022/07/14 12:48:49;;;;;;;1.25;0.50;;;33.70;52.70;;;;;;4973279;28;20046;-67
2022/07/14 12:51:18;;;;;;;2.63;0.60;;;33.50;51.20;;;;;;4973236;28;20453;-67
2022/07/14 12:53:58;;;;;;;0.75;0.40;;;33.30;51.90;;;;;;4973251;28;20031;-67
2022/07/14 12:56:25;;;;;;;2.03;0.47;;;33.20;51.90;;;;;;4971577;28;20093;-68
2022/07/14 12:58:52;;;;;;;3.22;0.60;;;32.90;52.10;;;;;;4972769;28;20416;-67
2022/07/14 13:01:18;;;;;;;1.73;0.50;;;32.60;53.80;;;;;;4972873;28;20023;-67
2022/07/14 13:04:02;;;;;;;2.10;0.43;;;32.30;53.70;;;;;;4976661;28;20027;-67